Jack Guidry — WDF2422 — position and weather

sailwx.info

Track history (hours):
 
Tides and Currents Weather Stations Pressure Air Temp Water Temp Dewpoint Dewpoint Depression Visibility Wind Speed Wind Dir Waves Ship Positions

Jack Guidry

Owner: Enterprise Marine Services, LLC, San Antonio, TX. More information available from US FCC via Universal Licensing System and Coast Guard Vessel Documentation Center.

Last reported at 2017-Apr-20 17:12 UTC. Time now 2017-Apr-25 14:37 UTC.
Position N 30°04' W 093°32'.

Length 22 m; draft 3 m.

Type: Other ship. MMSI: 367003430.

Date/timePositionNaut miles runAvg speedWind from/ knotsBaromVisibWave heightAir tempDewpointWater temp
2017-Apr-20 17:12N 30°04' W 093°32'1 4.5
2017-Apr-20 16:59N 30°04' W 093°31'2 4.1
2017-Apr-20 16:30N 30°04' W 093°29'2 4.5
2017-Apr-20 16:00N 30°04' W 093°26'2 4.4
2017-Apr-20 15:30N 30°04' W 093°24'1 2.1
2017-Apr-20 15:00N 30°04' W 093°22'2 3.3
2017-Apr-20 14:30N 30°04' W 093°21'4 3.8
2017-Apr-20 13:29N 30°08' W 093°20'0 0.2
2017-Apr-20 12:59N 30°08' W 093°20'0 0.0
2017-Apr-20 12:29N 30°08' W 093°20'0 0.6
2017-Apr-20 12:00N 30°08' W 093°19'0 0.2
2017-Apr-20 11:30N 30°08' W 093°19'0 0.0
2017-Apr-20 11:00N 30°08' W 093°19'0 0.0
2017-Apr-20 10:30N 30°08' W 093°19'0 0.0
2017-Apr-20 10:00N 30°08' W 093°19'0 0.0
2017-Apr-20 09:30N 30°08' W 093°19'0 0.0
2017-Apr-20 09:00N 30°08' W 093°19'0 0.0
2017-Apr-20 08:30N 30°08' W 093°19'0 0.0
2017-Apr-20 08:00N 30°08' W 093°19'0 0.0
2017-Apr-20 07:30N 30°08' W 093°19'0 0.0
2017-Apr-20 07:00N 30°08' W 093°19'0 0.0
2017-Apr-20 06:30N 30°08' W 093°19'0 0.0
2017-Apr-20 06:00N 30°08' W 093°19'0 0.0
2017-Apr-20 05:30N 30°08' W 093°19'0 0.0
2017-Apr-20 05:00N 30°08' W 093°19'0 0.0
2017-Apr-20 04:30N 30°08' W 093°19'0 0.0
2017-Apr-20 04:00N 30°08' W 093°19'0 0.0
2017-Apr-20 03:30N 30°08' W 093°19'0 0.0
2017-Apr-20 03:00N 30°08' W 093°19'0 0.0
2017-Apr-20 02:30N 30°08' W 093°19'0 0.0
2017-Apr-20 02:00N 30°08' W 093°19'0 0.0
2017-Apr-20 01:30N 30°08' W 093°19'0 0.0
2017-Apr-20 01:00N 30°08' W 093°19'0 0.0
2017-Apr-20 00:30N 30°08' W 093°19'0 0.0
2017-Apr-20 00:00N 30°08' W 093°19'0 0.0
2017-Apr-19 23:30N 30°08' W 093°19'0 0.0
2017-Apr-19 23:00N 30°08' W 093°19'0 0.0
2017-Apr-19 22:30N 30°08' W 093°19'0 0.0
2017-Apr-19 22:00N 30°08' W 093°19'0 0.0
2017-Apr-19 21:30N 30°08' W 093°19'0 0.0
2017-Apr-19 21:00N 30°08' W 093°19'0 0.0
2017-Apr-19 20:27N 30°08' W 093°19'0 0.0
2017-Apr-19 20:00N 30°08' W 093°19'0 0.0
2017-Apr-19 19:30N 30°08' W 093°19'0 0.0
2017-Apr-19 19:00N 30°08' W 093°19'0 0.0
2017-Apr-19 18:30N 30°08' W 093°19'0 0.0
2017-Apr-19 18:00N 30°08' W 093°19'0 0.0
2017-Apr-19 17:30N 30°08' W 093°19'0 0.0
2017-Apr-19 17:00N 30°08' W 093°19'0 0.0
2017-Apr-19 16:30N 30°08' W 093°19'0 0.0
2017-Apr-19 16:00N 30°08' W 093°19'0 0.0
2017-Apr-19 15:30N 30°08' W 093°19'0 0.0
2017-Apr-19 15:00N 30°08' W 093°19'0 0.0
2017-Apr-19 14:30N 30°08' W 093°19'0 0.0
2017-Apr-19 13:24N 30°08' W 093°19'0 0.0
2017-Apr-19 12:57N 30°08' W 093°19'0 0.0
2017-Apr-19 12:27N 30°08' W 093°19'0 0.0
2017-Apr-19 12:00N 30°08' W 093°19'0 0.0
2017-Apr-19 11:30N 30°08' W 093°19'2 3.4
2017-Apr-19 11:00N 30°07' W 093°20'2 4.9
2017-Apr-19 10:30N 30°04' W 093°21'2 3.9
2017-Apr-19 10:01N 30°04' W 093°23'3 5.2
2017-Apr-19 09:30N 30°04' W 093°26'3 5.4
2017-Apr-19 09:00N 30°04' W 093°29'83 2.4
2017-Apr-17 22:49N 29°42' W 095°01'7 6.3
2017-Apr-17 21:40N 29°36' W 094°57'  
Track history (hours):
 
Tides and Currents Weather Stations Pressure Air Temp Water Temp Dewpoint Dewpoint Depression Visibility Wind Speed Wind Dir Waves Ship Positions

Jack Guidry

Owner: Enterprise Marine Services, LLC, San Antonio, TX. More information available from US FCC via Universal Licensing System and Coast Guard Vessel Documentation Center.

Last reported at 2017-Apr-20 17:12 UTC. Time now 2017-Apr-25 14:37 UTC.
Position N 30°04' W 093°32'.

Length 22 m; draft 3 m.

Type: Other ship. MMSI: 367003430.

Date/timePositionNaut miles runAvg speedWind from/ knotsBaromVisibWave heightAir tempDewpointWater temp
2017-Apr-20 17:12N 30°04' W 093°32'1 4.5
2017-Apr-20 16:59N 30°04' W 093°31'2 4.1
2017-Apr-20 16:30N 30°04' W 093°29'2 4.5
2017-Apr-20 16:00N 30°04' W 093°26'2 4.4
2017-Apr-20 15:30N 30°04' W 093°24'1 2.1
2017-Apr-20 15:00N 30°04' W 093°22'2 3.3
2017-Apr-20 14:30N 30°04' W 093°21'4 3.8
2017-Apr-20 13:29N 30°08' W 093°20'0 0.2
2017-Apr-20 12:59N 30°08' W 093°20'0 0.0
2017-Apr-20 12:29N 30°08' W 093°20'0 0.6
2017-Apr-20 12:00N 30°08' W 093°19'0 0.2
2017-Apr-20 11:30N 30°08' W 093°19'0 0.0
2017-Apr-20 11:00N 30°08' W 093°19'0 0.0
2017-Apr-20 10:30N 30°08' W 093°19'0 0.0
2017-Apr-20 10:00N 30°08' W 093°19'0 0.0
2017-Apr-20 09:30N 30°08' W 093°19'0 0.0
2017-Apr-20 09:00N 30°08' W 093°19'0 0.0
2017-Apr-20 08:30N 30°08' W 093°19'0 0.0
2017-Apr-20 08:00N 30°08' W 093°19'0 0.0
2017-Apr-20 07:30N 30°08' W 093°19'0 0.0
2017-Apr-20 07:00N 30°08' W 093°19'0 0.0
2017-Apr-20 06:30N 30°08' W 093°19'0 0.0
2017-Apr-20 06:00N 30°08' W 093°19'0 0.0
2017-Apr-20 05:30N 30°08' W 093°19'0 0.0
2017-Apr-20 05:00N 30°08' W 093°19'0 0.0
2017-Apr-20 04:30N 30°08' W 093°19'0 0.0
2017-Apr-20 04:00N 30°08' W 093°19'0 0.0
2017-Apr-20 03:30N 30°08' W 093°19'0 0.0
2017-Apr-20 03:00N 30°08' W 093°19'0 0.0
2017-Apr-20 02:30N 30°08' W 093°19'0 0.0
2017-Apr-20 02:00N 30°08' W 093°19'0 0.0
2017-Apr-20 01:30N 30°08' W 093°19'0 0.0
2017-Apr-20 01:00N 30°08' W 093°19'0 0.0
2017-Apr-20 00:30N 30°08' W 093°19'0 0.0
2017-Apr-20 00:00N 30°08' W 093°19'0 0.0
2017-Apr-19 23:30N 30°08' W 093°19'0 0.0
2017-Apr-19 23:00N 30°08' W 093°19'0 0.0
2017-Apr-19 22:30N 30°08' W 093°19'0 0.0
2017-Apr-19 22:00N 30°08' W 093°19'0 0.0
2017-Apr-19 21:30N 30°08' W 093°19'0 0.0
2017-Apr-19 21:00N 30°08' W 093°19'0 0.0
2017-Apr-19 20:27N 30°08' W 093°19'0 0.0
2017-Apr-19 20:00N 30°08' W 093°19'0 0.0
2017-Apr-19 19:30N 30°08' W 093°19'0 0.0
2017-Apr-19 19:00N 30°08' W 093°19'0 0.0
2017-Apr-19 18:30N 30°08' W 093°19'0 0.0
2017-Apr-19 18:00N 30°08' W 093°19'0 0.0
2017-Apr-19 17:30N 30°08' W 093°19'0 0.0
2017-Apr-19 17:00N 30°08' W 093°19'0 0.0
2017-Apr-19 16:30N 30°08' W 093°19'0 0.0
2017-Apr-19 16:00N 30°08' W 093°19'0 0.0
2017-Apr-19 15:30N 30°08' W 093°19'0 0.0
2017-Apr-19 15:00N 30°08' W 093°19'0 0.0
2017-Apr-19 14:30N 30°08' W 093°19'0 0.0
2017-Apr-19 13:24N 30°08' W 093°19'0 0.0
2017-Apr-19 12:57N 30°08' W 093°19'0 0.0
2017-Apr-19 12:27N 30°08' W 093°19'0 0.0
2017-Apr-19 12:00N 30°08' W 093°19'0 0.0
2017-Apr-19 11:30N 30°08' W 093°19'2 3.4
2017-Apr-19 11:00N 30°07' W 093°20'2 4.9
2017-Apr-19 10:30N 30°04' W 093°21'2 3.9
2017-Apr-19 10:01N 30°04' W 093°23'3 5.2
2017-Apr-19 09:30N 30°04' W 093°26'3 5.4
2017-Apr-19 09:00N 30°04' W 093°29'83 2.4
2017-Apr-17 22:49N 29°42' W 095°01'7 6.3
2017-Apr-17 21:40N 29°36' W 094°57'  

Dump ship's entire track history